Sinop Airport

LTCM · 锡诺普省, 土耳其

罗盘
风向 的 风向 140° Sinop Airport 5/23
风: 12 kt, 4 beaufort

1 kt

12 kt
改变
0 ft 1.000 2.000 3.000 4.000 5.000
CAVOK
METAR LTCM 231750Z 14012KT CAVOK 10/06 Q1023

METAR Sinop Airport - LTCM/NOP

Sinop Airport是,土耳其中的中型机场。 该机场位于纬度42,01850和经度35,07210。 该机场有一条跑道: 5/23. 本场的ICAO机场代码为LTCM。 该机场的IATA代码为NOP。 机场在Ankara FIR中。

该航空气象观测是针对Sinop Airport在2024年2月23日 20:50, 当地时间进行的。

机场观察

风向为140°,速度为12 kt。

天气为CAVOK。这意味着在5.000 ft或MSA(最低安全高度)以下(以较高者为准)以下没有云。这也意味着没有观测到积雨云或高耸的积云,可见度为10 km 或者更多或更高。此外,不会有雾,降雨或其他重要天气。

温度为10 °C,阵风为6 °C。 露点为6 °C,相对湿度为76%。 海平面上的气压为1023 hPa (QNH)。

白天

今天,太阳从07:24升起,在18:21降落。 这适用于Sinop Airport,世界夏令时可能有所不同。 当地时间与世界标准时间之间的时差为+3 小时。 当前,没有夏令时有效。

公司介绍

我们没有关于这个机场的公司信息。

体会

到Vliegles.nl去找飞行课程,跳伞和其他飞行体验。 浏览页面,了解Sinop Airport附近所有可用的活动。 你也可以使用搜索功能来寻找你所在地附近的特定飞行课程、跳伞或其他飞行体验。

跑道

Id 标题 侧风 逆风 侧风 %
5/23 054°-234° 12 kt 100 %

逆风成分最大的方向会被突出显示,并用于横风计算。 这并不一定意味着这个方向在使用。

温度 & 天气

温度 10 °C
露点 6 °C
相对湿度 76%
风寒 6 °C
Kp-index 0 (0-9)

白天

日出
07:24 (10:04)
中午
12:53
日落
18:21

小工具

你想在你的网站上有一个关于Sinop Airport的当前航空天气(METAR)的小部件吗?

显示HTML代码
?>